createdAt,value
2022-12-23T00:01:06.928Z,6.43
2022-12-23T00:03:08.914Z,7.00
2022-12-23T00:05:11.099Z,7.18
2022-12-23T00:07:13.037Z,7.07
2022-12-23T00:09:16.313Z,7.75
2022-12-23T00:11:19.759Z,7.00
2022-12-23T00:13:21.624Z,7.70
2022-12-23T00:15:23.648Z,7.57
2022-12-23T00:17:25.342Z,7.15
2022-12-23T00:21:28.609Z,6.28
2022-12-23T00:23:32.518Z,7.10
2022-12-23T00:25:40.895Z,7.03
2022-12-23T00:27:42.834Z,7.20
2022-12-23T00:29:44.588Z,6.47
2022-12-23T00:31:46.348Z,6.25
2022-12-23T00:33:50.269Z,6.88
2022-12-23T00:35:52.390Z,6.97
2022-12-23T00:37:54.226Z,6.28
2022-12-23T00:39:59.872Z,6.18
2022-12-23T00:42:10.717Z,5.82
2022-12-23T00:44:12.413Z,6.35
2022-12-23T00:46:14.030Z,6.30
2022-12-23T00:48:16.040Z,5.72
2022-12-23T00:50:17.933Z,6.18
2022-12-23T00:52:19.838Z,6.43
2022-12-23T00:54:21.822Z,5.72
2022-12-23T00:56:23.823Z,6.82
2022-12-23T00:58:27.011Z,7.15
2022-12-23T01:00:29.325Z,6.60
2022-12-23T01:02:31.322Z,7.43
2022-12-23T01:04:33.171Z,6.15
2022-12-23T01:06:35.198Z,7.32
2022-12-23T01:08:36.963Z,6.80
2022-12-23T01:10:40.034Z,6.55
2022-12-23T01:12:41.788Z,7.03
2022-12-23T01:14:45.064Z,6.38
2022-12-23T01:16:47.178Z,6.85
2022-12-23T01:18:50.848Z,6.93
2022-12-23T01:20:52.570Z,7.03
2022-12-23T01:22:54.508Z,6.35
2022-12-23T01:24:56.244Z,6.47
2022-12-23T01:26:58.385Z,7.22
2022-12-23T01:29:00.246Z,6.90
2022-12-23T01:31:05.557Z,6.60
2022-12-23T01:33:07.259Z,6.90
2022-12-23T01:35:08.870Z,6.95
2022-12-23T01:39:11.806Z,6.80
2022-12-23T01:43:19.014Z,6.75
2022-12-23T01:45:24.910Z,6.82
2022-12-23T01:47:36.415Z,6.63
2022-12-23T01:49:38.219Z,6.22
2022-12-23T01:51:40.027Z,7.07
2022-12-23T01:53:45.413Z,7.30
2022-12-23T01:55:51.956Z,7.18
2022-12-23T01:57:56.529Z,6.57
2022-12-23T01:59:58.164Z,7.20
2022-12-23T02:04:07.211Z,6.70
2022-12-23T02:06:11.343Z,7.35
2022-12-23T02:08:14.654Z,6.90
2022-12-23T02:10:16.620Z,7.47
2022-12-23T02:12:41.751Z,7.43
2022-12-23T02:15:01.562Z,7.07
2022-12-23T02:17:14.637Z,7.20
2022-12-23T02:19:32.349Z,7.18
2022-12-23T02:21:55.245Z,6.95
2022-12-23T02:24:50.592Z,7.15
2022-12-23T02:27:05.580Z,6.85
2022-12-23T02:29:43.325Z,7.07
2022-12-23T02:31:54.773Z,7.93
2022-12-23T02:34:02.222Z,6.80
2022-12-23T02:36:13.740Z,7.22
2022-12-23T02:38:25.280Z,6.78
2022-12-23T02:40:35.919Z,6.35
2022-12-23T02:42:43.835Z,6.50
2022-12-23T02:46:56.876Z,7.18
2022-12-23T02:49:08.039Z,6.60
2022-12-23T02:51:12.651Z,6.80
2022-12-23T02:53:22.128Z,6.95
2022-12-23T02:55:27.952Z,7.22
2022-12-23T02:57:39.326Z,7.00
2022-12-23T02:59:45.771Z,7.05
2022-12-23T03:01:49.561Z,6.90
2022-12-23T03:03:53.089Z,6.72
2022-12-23T03:05:55.535Z,7.35
2022-12-23T03:08:02.783Z,6.72
2022-12-23T03:10:13.811Z,7.90
2022-12-23T03:12:22.599Z,7.45
2022-12-23T03:14:41.897Z,7.30
2022-12-23T03:16:52.924Z,7.25
2022-12-23T03:19:07.775Z,7.03
2022-12-23T03:21:12.720Z,8.10
2022-12-23T03:23:21.695Z,7.40
2022-12-23T03:25:27.265Z,6.97
2022-12-23T03:27:34.448Z,7.50
2022-12-23T03:29:42.706Z,7.45
2022-12-23T03:31:47.601Z,8.55
2022-12-23T03:33:58.337Z,7.63
2022-12-23T03:36:05.965Z,7.65
2022-12-23T03:38:08.882Z,7.13
2022-12-23T03:40:16.356Z,7.90
2022-12-23T03:42:22.893Z,8.23
2022-12-23T03:44:28.522Z,7.90
2022-12-23T03:46:34.440Z,7.75
2022-12-23T03:48:43.627Z,6.85
2022-12-23T03:50:48.502Z,7.13
2022-12-23T03:52:56.120Z,6.82
2022-12-23T03:55:01.885Z,7.60
2022-12-23T03:57:07.579Z,8.25
2022-12-23T03:59:14.855Z,7.50
2022-12-23T04:01:21.873Z,7.72
2022-12-23T04:03:31.441Z,7.78
2022-12-23T04:05:38.185Z,7.13
2022-12-23T04:07:46.006Z,7.57
2022-12-23T04:09:51.072Z,7.82
2022-12-23T04:11:52.991Z,7.95
2022-12-23T04:13:54.726Z,7.63
2022-12-23T04:15:58.104Z,7.97
2022-12-23T04:18:00.051Z,7.97
2022-12-23T04:20:01.972Z,7.45
2022-12-23T04:22:03.923Z,7.68
2022-12-23T04:24:06.098Z,7.28
2022-12-23T04:26:09.292Z,7.30
2022-12-23T04:28:11.006Z,7.63
2022-12-23T04:30:14.055Z,8.15
2022-12-23T04:32:15.793Z,8.63
2022-12-23T04:34:17.435Z,7.38
2022-12-23T04:38:29.502Z,7.63
2022-12-23T04:40:31.332Z,6.85
2022-12-23T04:42:34.692Z,8.38
2022-12-23T04:44:36.616Z,7.63
2022-12-23T04:46:38.697Z,8.02
2022-12-23T04:48:40.400Z,7.38
2022-12-23T04:50:42.147Z,7.57
2022-12-23T04:52:44.120Z,7.90
2022-12-23T04:54:46.493Z,7.68
2022-12-23T04:56:48.233Z,7.38
2022-12-23T05:01:01.232Z,7.25
2022-12-23T05:03:03.069Z,7.35
2022-12-23T05:05:05.566Z,8.02
2022-12-23T05:07:07.262Z,7.72
2022-12-23T05:09:09.327Z,7.93
2022-12-23T05:11:11.123Z,7.53
2022-12-23T05:13:12.843Z,7.70
2022-12-23T05:15:16.047Z,7.55
2022-12-23T05:17:18.206Z,8.05
2022-12-23T05:19:19.737Z,7.05
2022-12-23T05:23:22.627Z,7.47
2022-12-23T05:27:25.529Z,7.53
2022-12-23T05:31:29.967Z,7.10
2022-12-23T05:33:32.345Z,11.88
2022-12-23T05:35:34.803Z,7.97
2022-12-23T05:37:36.389Z,7.60
2022-12-23T05:41:42.265Z,8.10
2022-12-23T05:43:43.830Z,8.43
2022-12-23T05:47:48.653Z,9.23
2022-12-23T05:49:50.172Z,10.55
2022-12-23T05:51:51.713Z,7.53
2022-12-23T05:55:54.800Z,7.93
2022-12-23T05:57:56.617Z,7.22
2022-12-23T05:59:58.465Z,7.35
2022-12-23T06:02:00.498Z,6.85
2022-12-23T06:04:04.216Z,7.22
2022-12-23T06:06:06.624Z,12.82
2022-12-23T06:08:08.169Z,8.02
2022-12-23T06:12:11.967Z,10.50
2022-12-23T06:16:15.042Z,7.85
2022-12-23T06:18:16.699Z,15.60
2022-12-23T06:20:20.883Z,11.00
2022-12-23T06:22:22.936Z,7.07
2022-12-23T06:24:24.671Z,7.00
2022-12-23T06:26:26.472Z,8.07
2022-12-23T06:28:28.576Z,6.75
2022-12-23T06:30:30.132Z,7.93
2022-12-23T06:34:40.072Z,6.40
2022-12-23T06:38:44.369Z,5.88
2022-12-23T06:42:47.696Z,6.53
2022-12-23T06:46:50.570Z,6.10
2022-12-23T06:48:55.055Z,6.30
2022-12-23T06:50:58.777Z,6.15
2022-12-23T06:53:04.731Z,6.20
2022-12-23T06:55:06.907Z,6.32
2022-12-23T06:57:08.508Z,6.18
2022-12-23T07:01:13.357Z,6.72
2022-12-23T07:03:15.183Z,6.85
2022-12-23T07:05:16.870Z,6.85
2022-12-23T07:09:21.160Z,6.03
2022-12-23T07:11:22.914Z,7.00
2022-12-23T07:13:24.603Z,6.22
2022-12-23T07:15:26.210Z,5.95
2022-12-23T07:19:29.471Z,6.45
2022-12-23T07:21:31.015Z,5.70
2022-12-23T07:23:32.562Z,6.18
2022-12-23T07:25:35.659Z,6.65
2022-12-23T07:27:37.209Z,7.25
2022-12-23T07:29:38.726Z,6.50
2022-12-23T07:33:45.991Z,6.78
2022-12-23T07:35:47.588Z,6.75
2022-12-23T07:39:52.558Z,6.57
2022-12-23T07:44:16.881Z,6.03
2022-12-23T07:48:20.158Z,6.55
2022-12-23T07:50:26.794Z,6.53
2022-12-23T07:52:28.561Z,6.53
2022-12-23T07:54:30.214Z,6.60
2022-12-23T07:56:31.778Z,6.07
2022-12-23T08:00:43.525Z,6.53
2022-12-23T08:04:46.843Z,7.05
2022-12-23T08:06:48.465Z,6.15
2022-12-23T08:10:51.422Z,5.63
2022-12-23T08:12:53.010Z,5.93
2022-12-23T08:16:57.567Z,6.03
2022-12-23T08:18:59.119Z,6.18
2022-12-23T08:21:02.689Z,6.20
2022-12-23T08:23:04.628Z,5.82
2022-12-23T08:25:07.023Z,6.68
2022-12-23T08:27:08.758Z,6.03
2022-12-23T08:29:10.566Z,6.28
2022-12-23T08:31:15.934Z,6.07
2022-12-23T08:33:17.630Z,5.78
2022-12-23T08:37:23.392Z,5.82
2022-12-23T08:39:25.384Z,5.97
2022-12-23T08:41:33.039Z,6.10
2022-12-23T08:43:36.106Z,5.38
2022-12-23T08:45:38.471Z,6.05
2022-12-23T08:47:41.398Z,6.53
2022-12-23T08:49:42.949Z,5.57
2022-12-23T08:53:47.145Z,5.55
2022-12-23T08:55:49.053Z,4.70
2022-12-23T08:57:50.623Z,5.18
2022-12-23T09:01:53.814Z,5.07
2022-12-23T09:03:57.234Z,5.75
2022-12-23T09:05:58.984Z,5.22
2022-12-23T09:08:01.667Z,5.53
2022-12-23T09:10:03.769Z,5.00
2022-12-23T09:12:05.555Z,5.25
2022-12-23T09:14:07.134Z,6.00
2022-12-23T09:18:11.474Z,4.20
2022-12-23T09:20:14.560Z,4.80
2022-12-23T09:22:16.124Z,5.00
2022-12-23T09:26:20.886Z,4.68
2022-12-23T09:28:23.460Z,3.90
2022-12-23T09:30:25.061Z,4.35
2022-12-23T09:34:28.064Z,4.97
2022-12-23T09:38:33.082Z,4.78
2022-12-23T09:40:39.228Z,4.40
2022-12-23T09:42:57.008Z,4.57
2022-12-23T09:45:11.233Z,4.90
2022-12-23T09:47:16.659Z,4.80
2022-12-23T09:49:22.505Z,4.78
2022-12-23T09:51:24.432Z,4.68
2022-12-23T09:53:45.050Z,4.53
2022-12-23T09:57:58.322Z,4.57
2022-12-23T10:00:11.072Z,4.38
2022-12-23T10:02:23.441Z,4.47
2022-12-23T10:04:37.755Z,4.43
2022-12-23T10:08:46.553Z,3.85
2022-12-23T10:10:50.976Z,4.45
2022-12-23T10:12:53.899Z,3.70
2022-12-23T10:14:58.797Z,4.93
2022-12-23T10:17:08.792Z,3.95
2022-12-23T10:19:17.738Z,4.30
2022-12-23T10:21:29.794Z,4.35
2022-12-23T10:23:36.415Z,4.30
2022-12-23T10:25:46.434Z,4.22
2022-12-23T10:27:48.190Z,4.43
2022-12-23T10:29:50.056Z,4.30
2022-12-23T10:32:04.871Z,4.07
2022-12-23T10:34:15.080Z,3.78
2022-12-23T10:36:23.297Z,3.85
2022-12-23T10:38:35.404Z,3.85
2022-12-23T10:40:50.053Z,3.33
2022-12-23T10:43:04.205Z,3.70
2022-12-23T10:45:27.824Z,3.75
2022-12-23T10:47:43.359Z,3.67
2022-12-23T10:49:57.102Z,3.20
2022-12-23T10:52:03.177Z,2.85
2022-12-23T10:54:09.931Z,3.53
2022-12-23T10:56:13.642Z,3.20
2022-12-23T10:58:17.260Z,3.28
2022-12-23T11:00:22.776Z,4.03
2022-12-23T11:02:38.736Z,3.88
2022-12-23T11:04:42.612Z,3.70
2022-12-23T11:06:48.320Z,3.35
2022-12-23T11:08:50.647Z,3.30
2022-12-23T11:10:53.820Z,2.65
2022-12-23T11:12:57.167Z,3.42
2022-12-23T11:14:58.758Z,2.95
2022-12-23T11:19:04.277Z,3.05
2022-12-23T11:21:06.742Z,3.20
2022-12-23T11:23:23.649Z,3.10
2022-12-23T11:25:28.192Z,2.70
2022-12-23T11:27:30.405Z,3.00
2022-12-23T11:29:36.694Z,3.22
2022-12-23T11:31:38.953Z,3.15
2022-12-23T11:33:48.604Z,2.95
2022-12-23T11:36:00.899Z,3.35
2022-12-23T11:38:03.270Z,3.58
2022-12-23T11:40:06.963Z,3.22
2022-12-23T11:42:15.918Z,3.47
2022-12-23T11:44:23.998Z,3.33
2022-12-23T11:46:31.241Z,3.35
2022-12-23T11:48:34.089Z,3.47
2022-12-23T11:50:37.714Z,3.50
2022-12-23T11:52:50.692Z,3.88
2022-12-23T11:54:54.782Z,4.00
2022-12-23T11:56:57.521Z,3.80
2022-12-23T11:59:05.789Z,3.95
2022-12-23T12:01:16.679Z,3.53
2022-12-23T12:03:22.383Z,3.90
2022-12-23T12:05:29.936Z,4.13
2022-12-23T12:07:32.832Z,3.67
2022-12-23T12:09:34.644Z,4.50
2022-12-23T12:11:39.423Z,3.78
2022-12-23T12:13:43.329Z,4.72
2022-12-23T12:15:54.390Z,4.80
2022-12-23T12:17:57.744Z,4.00
2022-12-23T12:20:04.589Z,4.72
2022-12-23T12:22:12.246Z,4.72
2022-12-23T12:24:19.938Z,4.93
2022-12-23T12:26:27.070Z,4.80
2022-12-23T12:28:34.359Z,4.63
2022-12-23T12:30:42.908Z,4.35
2022-12-23T12:32:54.990Z,4.80
2022-12-23T12:35:02.056Z,4.15
2022-12-23T12:37:15.872Z,4.20
2022-12-23T12:39:24.584Z,4.90
2022-12-23T12:41:32.612Z,3.70
2022-12-23T12:43:38.004Z,3.90
2022-12-23T12:45:45.794Z,4.43
2022-12-23T12:48:12.786Z,3.78
2022-12-23T12:50:23.419Z,4.40
2022-12-23T12:52:39.220Z,4.07
2022-12-23T12:54:48.482Z,4.20
2022-12-23T12:56:52.211Z,4.40
2022-12-23T12:58:56.722Z,3.67
2022-12-23T13:01:09.997Z,3.70
2022-12-23T13:03:28.054Z,3.90
2022-12-23T13:06:01.611Z,3.28
2022-12-23T13:08:19.469Z,3.17
2022-12-23T13:10:33.082Z,3.42
2022-12-23T13:12:45.124Z,3.00
2022-12-23T13:15:00.990Z,3.13
2022-12-23T13:17:12.402Z,3.35
2022-12-23T13:19:26.117Z,3.20
2022-12-23T13:21:33.747Z,3.25
2022-12-23T13:23:45.892Z,3.05
2022-12-23T13:25:55.070Z,2.60
2022-12-23T13:28:02.277Z,2.58
2022-12-23T13:30:08.775Z,2.80
2022-12-23T13:32:22.462Z,2.70
2022-12-23T13:34:35.673Z,2.40
2022-12-23T13:36:50.789Z,2.83
2022-12-23T13:39:09.612Z,2.97
2022-12-23T13:41:23.684Z,2.80
2022-12-23T13:43:39.343Z,2.55
2022-12-23T13:45:42.643Z,2.80
2022-12-23T13:47:52.263Z,3.15
2022-12-23T13:50:03.565Z,3.13
2022-12-23T13:52:11.542Z,2.97
2022-12-23T13:54:29.750Z,3.15
2022-12-23T13:56:39.147Z,2.90
2022-12-23T13:58:41.643Z,3.33
2022-12-23T14:00:56.445Z,3.50
2022-12-23T14:03:19.075Z,3.22
2022-12-23T14:05:40.536Z,3.53
2022-12-23T14:07:44.777Z,2.97
2022-12-23T14:09:54.741Z,3.30
2022-12-23T14:12:01.095Z,3.17
2022-12-23T14:14:22.997Z,3.08
2022-12-23T14:16:51.631Z,3.42
2022-12-23T14:19:35.926Z,3.65
2022-12-23T14:21:47.777Z,3.35
2022-12-23T14:24:07.716Z,3.22
2022-12-23T14:26:30.678Z,3.75
2022-12-23T14:28:54.110Z,3.58
2022-12-23T14:30:56.271Z,3.40
2022-12-23T14:32:59.688Z,3.53
2022-12-23T14:35:15.841Z,4.00
2022-12-23T14:37:36.331Z,3.47
2022-12-23T14:39:38.528Z,3.38
2022-12-23T14:41:49.005Z,3.40
2022-12-23T14:43:58.137Z,3.63
2022-12-23T14:46:01.133Z,3.90
2022-12-23T14:48:23.874Z,3.80
2022-12-23T14:50:39.984Z,4.00
2022-12-23T14:53:01.353Z,3.53
2022-12-23T14:55:47.821Z,4.15
2022-12-23T14:58:07.283Z,3.60
2022-12-23T15:00:10.229Z,4.18
2022-12-23T15:02:24.295Z,4.10
2022-12-23T15:04:29.049Z,4.10
2022-12-23T15:06:35.613Z,4.10
2022-12-23T15:08:41.177Z,4.93
2022-12-23T15:10:44.406Z,4.30
2022-12-23T15:12:49.432Z,4.72
2022-12-23T15:14:56.309Z,4.53
2022-12-23T15:16:58.441Z,4.55
2022-12-23T15:19:02.575Z,4.63
2022-12-23T15:21:11.008Z,4.43
2022-12-23T15:23:17.001Z,4.38
2022-12-23T15:25:21.513Z,4.40
2022-12-23T15:27:28.528Z,4.43
2022-12-23T15:29:31.117Z,5.32
2022-12-23T15:31:43.421Z,5.13
2022-12-23T15:34:04.075Z,4.45
2022-12-23T15:36:09.823Z,4.70
2022-12-23T15:38:14.572Z,5.40
2022-12-23T15:40:25.072Z,5.20
2022-12-23T15:42:28.540Z,4.60
2022-12-23T15:44:37.240Z,5.03
2022-12-23T15:46:44.789Z,5.28
2022-12-23T15:48:47.545Z,4.97
2022-12-23T15:50:51.392Z,5.05
2022-12-23T15:52:56.128Z,5.32
2022-12-23T15:55:00.641Z,5.70
2022-12-23T15:57:05.888Z,4.93
2022-12-23T15:59:20.903Z,5.25
2022-12-23T16:01:23.069Z,4.93
2022-12-23T16:03:32.740Z,4.65
2022-12-23T16:05:36.512Z,4.70
2022-12-23T16:07:41.250Z,5.20
2022-12-23T16:09:43.563Z,5.55
2022-12-23T16:11:53.485Z,5.40
2022-12-23T16:13:58.688Z,5.15
2022-12-23T16:16:36.654Z,5.18
2022-12-23T16:18:47.349Z,5.10
2022-12-23T16:20:51.845Z,4.85
2022-12-23T16:23:00.458Z,4.68
2022-12-23T16:25:10.791Z,5.10
2022-12-23T16:27:15.475Z,5.15
2022-12-23T16:29:17.840Z,5.10
2022-12-23T16:31:20.940Z,4.95
2022-12-23T16:33:33.492Z,5.13
2022-12-23T16:35:40.493Z,4.85
2022-12-23T16:37:45.940Z,4.70
2022-12-23T16:39:52.398Z,4.97
2022-12-23T16:41:54.070Z,4.80
2022-12-23T16:44:00.518Z,5.38
2022-12-23T16:46:02.925Z,4.63
2022-12-23T16:48:10.028Z,5.10
2022-12-23T16:50:14.585Z,4.80
2022-12-23T16:52:20.640Z,4.80
2022-12-23T16:54:22.322Z,4.90
2022-12-23T16:56:27.431Z,4.78
2022-12-23T16:58:29.883Z,4.53
2022-12-23T17:00:32.093Z,4.82
2022-12-23T17:02:37.219Z,4.70
2022-12-23T17:04:38.957Z,4.53
2022-12-23T17:06:45.202Z,4.65
2022-12-23T17:08:49.285Z,4.38
2022-12-23T17:10:51.843Z,12.00
2022-12-23T17:12:54.083Z,6.47
2022-12-23T17:14:55.647Z,5.05
2022-12-23T17:18:59.265Z,5.05
2022-12-23T17:23:02.935Z,5.93
2022-12-23T17:25:06.400Z,5.60
2022-12-23T17:27:13.230Z,5.80
2022-12-23T17:29:14.944Z,7.25
2022-12-23T17:31:26.017Z,6.55
2022-12-23T17:33:31.718Z,5.97
2022-12-23T17:35:33.306Z,6.95
2022-12-23T17:39:37.211Z,7.47
2022-12-23T17:41:41.324Z,7.82
2022-12-23T17:43:42.849Z,7.85
2022-12-23T17:47:46.748Z,8.35
2022-12-23T17:49:49.071Z,8.18
2022-12-23T17:51:50.628Z,8.38
2022-12-23T17:55:59.646Z,6.80
2022-12-23T18:00:04.875Z,7.43
2022-12-23T18:02:21.818Z,7.75
2022-12-23T18:04:23.457Z,7.43
2022-12-23T18:08:27.632Z,6.82
2022-12-23T18:12:36.207Z,7.57
2022-12-23T18:14:42.237Z,7.50
2022-12-23T18:16:44.017Z,7.28
2022-12-23T18:18:47.058Z,7.45
2022-12-23T18:20:52.050Z,7.88
2022-12-23T18:22:55.028Z,7.72
2022-12-23T18:24:59.409Z,8.85
2022-12-23T18:27:01.311Z,7.65
2022-12-23T18:31:05.922Z,7.63
2022-12-23T18:33:10.650Z,7.70
2022-12-23T18:35:34.728Z,8.18
2022-12-23T18:37:36.299Z,7.93
2022-12-23T18:41:39.196Z,7.60
2022-12-23T18:45:42.197Z,7.70
2022-12-23T18:47:45.182Z,8.38
2022-12-23T18:49:46.910Z,8.07
2022-12-23T18:51:50.396Z,8.73
2022-12-23T18:53:52.485Z,7.82
2022-12-23T18:55:54.355Z,9.95
2022-12-23T18:57:56.731Z,8.93
2022-12-23T18:59:58.308Z,9.02
2022-12-23T19:04:02.923Z,9.52
2022-12-23T19:06:06.645Z,10.63
2022-12-23T19:08:11.279Z,9.30
2022-12-23T19:10:17.520Z,11.00
2022-12-23T19:12:22.163Z,12.25
2022-12-23T19:14:24.208Z,10.30
2022-12-23T19:16:25.817Z,11.30
2022-12-23T19:18:27.514Z,10.13
2022-12-23T19:20:31.297Z,11.07
2022-12-23T19:22:32.825Z,12.60
2022-12-23T19:26:35.723Z,12.32
2022-12-23T19:30:40.379Z,10.25
2022-12-23T19:32:42.126Z,10.68
2022-12-23T19:34:43.677Z,11.18
2022-12-23T19:38:48.205Z,10.05
2022-12-23T19:40:56.300Z,9.70
2022-12-23T19:42:57.820Z,11.35
2022-12-23T19:44:59.475Z,22.20
2022-12-23T19:49:02.528Z,11.48
2022-12-23T19:53:08.223Z,10.50
2022-12-23T19:55:10.205Z,15.30
2022-12-23T19:57:11.824Z,11.85
2022-12-23T20:01:17.047Z,9.93
2022-12-23T20:03:19.066Z,11.23
2022-12-23T20:05:20.608Z,10.93
2022-12-23T20:07:22.292Z,9.43
2022-12-23T20:09:25.211Z,9.90
2022-12-23T20:11:26.700Z,10.70
2022-12-23T20:13:28.324Z,9.27
2022-12-23T20:17:31.302Z,8.50
2022-12-23T20:19:32.945Z,9.88
2022-12-23T20:21:35.676Z,8.70
2022-12-23T20:23:37.226Z,8.93
2022-12-23T20:27:41.505Z,8.77
2022-12-23T20:29:43.049Z,9.45
2022-12-23T20:33:47.303Z,8.73
2022-12-23T20:35:48.868Z,8.80
2022-12-23T20:37:50.502Z,9.10
2022-12-23T20:41:54.855Z,8.25
2022-12-23T20:44:32.210Z,8.70
2022-12-23T20:46:19.461Z,9.20
2022-12-23T20:48:49.255Z,9.07
2022-12-23T20:50:50.847Z,9.00
2022-12-23T20:54:56.503Z,8.43
2022-12-23T20:56:59.472Z,9.07
2022-12-23T20:59:01.075Z,9.98
2022-12-23T21:03:11.354Z,8.77
2022-12-23T21:07:14.695Z,9.57
2022-12-23T21:09:16.553Z,9.10
2022-12-23T21:11:18.298Z,10.65
2022-12-23T21:13:21.219Z,9.40
2022-12-23T21:15:22.781Z,9.35
2022-12-23T21:17:24.407Z,9.45
2022-12-23T21:21:28.400Z,8.77
2022-12-23T21:23:30.227Z,8.98
2022-12-23T21:25:31.833Z,9.55
2022-12-23T21:29:36.087Z,9.13
2022-12-23T21:31:39.352Z,9.73
2022-12-23T21:33:43.024Z,8.07
2022-12-23T21:35:45.649Z,9.50
2022-12-23T21:37:47.164Z,9.32
2022-12-23T21:39:48.686Z,8.15
2022-12-23T21:41:52.642Z,8.70
2022-12-23T21:43:57.356Z,8.10
2022-12-23T21:46:06.430Z,7.47
2022-12-23T21:48:08.293Z,7.68
2022-12-23T21:50:10.647Z,7.53
2022-12-23T21:52:12.224Z,7.40
2022-12-23T21:54:14.189Z,8.02
2022-12-23T21:56:17.847Z,8.27
2022-12-23T21:58:19.367Z,7.25
2022-12-23T22:00:21.112Z,6.88
2022-12-23T22:02:24.799Z,6.60
2022-12-23T22:04:26.399Z,7.75
2022-12-23T22:06:30.054Z,6.45
2022-12-23T22:08:31.595Z,6.10
2022-12-23T22:10:33.149Z,6.60
2022-12-23T22:12:34.693Z,7.22
2022-12-23T22:14:36.406Z,6.20
2022-12-23T22:16:38.112Z,6.20
2022-12-23T22:18:41.307Z,6.55
2022-12-23T22:20:46.381Z,6.25
2022-12-23T22:22:48.449Z,5.57
2022-12-23T22:24:50.057Z,6.38
2022-12-23T22:26:51.588Z,6.05
2022-12-23T22:28:54.755Z,6.68
2022-12-23T22:31:01.556Z,5.70
2022-12-23T22:33:03.090Z,6.00
2022-12-23T22:35:06.621Z,5.63
2022-12-23T22:37:08.182Z,6.18
2022-12-23T22:39:19.423Z,5.47
2022-12-23T22:41:22.970Z,5.70
2022-12-23T22:43:24.577Z,6.25
2022-12-23T22:45:26.156Z,5.68
2022-12-23T22:47:27.973Z,5.30
2022-12-23T22:49:29.556Z,5.35
2022-12-23T22:51:35.143Z,4.97
2022-12-23T22:53:36.919Z,5.47
2022-12-23T22:55:38.511Z,5.18
2022-12-23T22:57:40.517Z,4.65
2022-12-23T22:59:42.059Z,6.07
2022-12-23T23:01:43.650Z,6.13
2022-12-23T23:03:45.215Z,5.20
2022-12-23T23:05:56.365Z,6.20
2022-12-23T23:07:59.328Z,5.97
2022-12-23T23:10:00.881Z,5.70
2022-12-23T23:12:02.414Z,6.20
2022-12-23T23:14:04.234Z,6.07
2022-12-23T23:16:06.594Z,5.65
2022-12-23T23:18:08.179Z,4.57
2022-12-23T23:20:10.360Z,6.03
2022-12-23T23:22:11.921Z,5.88
2022-12-23T23:24:14.921Z,5.88
2022-12-23T23:26:17.364Z,5.60
2022-12-23T23:28:18.912Z,5.03
2022-12-23T23:30:20.733Z,6.07
2022-12-23T23:32:22.424Z,4.82
2022-12-23T23:34:24.051Z,5.35
2022-12-23T23:36:25.806Z,5.40
2022-12-23T23:38:28.088Z,6.50
2022-12-23T23:40:32.471Z,5.32
2022-12-23T23:42:34.012Z,5.95
2022-12-23T23:44:35.618Z,5.10
2022-12-23T23:48:39.439Z,5.10
2022-12-23T23:50:41.628Z,4.40
2022-12-23T23:52:43.184Z,4.15
2022-12-23T23:54:44.828Z,4.32
2022-12-23T23:59:00.341Z,5.32
